ウシュアイア の空港の天気 - METARとTAF

ウシュアイア空港 ( SAWH / USH ) - アルゼンチン ティエラ・デル・フエゴ州、ウシュアイア
飛行場実況気象(Metar)
観測時間04/21 13:00 ART (04/21 16:00 UTC)
風向・風速南西 15m/s
視程8000m
天気現象強い霧雨
全天の8割程度の雲 雲底高度 610m
全天を覆う雲 雲底高度 1520m
気温7℃
湿度87%
気圧1010hPa
METARSAWH 211600Z 23030KT 8000 +DZ BKN020 OVC050 07/05 Q1010
過去の天気等 Google飛行場航空写真 Wunderground天気予報

過去48時間のMETAR

飛行場予報(TAF)
発表時間: 4/21 08:00 ART (4/21 11:00 UTC)
予報対象時間: 21日9時 ART ~ 22日9時 ART
風向・風速南西 13m/s
視程10km以上
全天の8割程度の雲 雲底高度 610m
全天の8割程度の雲 雲底高度 910m
21日9時 ART ~ 21日15時 ART に一時的に
視程5000m
天気現象しゅう雨
21日21時 ART ~ 21日23時 ART に徐々に
風向・風速不定 4m/s
全天の8割程度の雲 雲底高度 760m
TAF SAWH 211100Z 2112/2212 23025KT 9999 BKN020 BKN030 TX10/2119Z TN03/2210Z
TEMPO 2112/2118 5000 SHRA
BECMG 2200/2202 VRB07KT BKN025